Latest Weather Observations for Shepparton

IDV60801

Issued at 6:31 am EST Sunday 19 April 2015 (issued every 30 minutes, with the page automatically refreshed every 10 minutes)

About weather observations | Map of weather stations | Latest weather observations for VIC | Other Formats
Station Details ID: 081125 Name: SHEPPARTON AIRPORT Lat: -36.43 Lon: 145.39 Height: 113.9 m
Data from the previous 72 hours. | See also: Recent months at Shepparton
Date/Time
EST
Temp
°C
App
Temp
°C
Dew
Point
Rel
Hum
%
Delta-T
°C
Wind Press
QNH
hPa
Press
MSL
hPa
Rain
since 9 am
mm
Dir
 
Spd
km/h
Gust
km/h
Spd
kts
Gust
kts
19/06:30am 7.8 4.1 6.1 89 0.8 SW 15 17 8 9 1021.7 1021.6 0.2
19/06:00am 7.9 4.2 6.4 90 0.7 SW 15 20 8 11 1021.2 1021.1 0.2
19/05:30am 8.3 4.7 6.8 90 0.7 SW 15 20 8 11 1020.8 1020.7 0.2
19/05:00am 8.8 4.9 7.1 89 0.8 SW 17 22 9 12 1020.5 1020.4 0.2
19/04:30am 9.0 4.8 7.6 91 0.7 SW 19 24 10 13 1020.1 1019.9 0.2
19/04:00am 9.2 5.9 8.1 93 0.5 SW 15 20 8 11 1019.7 1019.5 0.2
19/03:30am 9.6 6.3 8.2 91 0.7 SW 15 22 8 12 1019.5 1019.3 0.2
19/03:00am 9.9 6.3 8.2 89 0.8 SSW 17 26 9 14 1019.0 1018.9 0.2
19/02:30am 10.4 6.9 8.8 90 0.8 SW 17 24 9 13 1018.9 1018.8 0.2
19/02:00am 10.6 7.2 9.0 90 0.8 SW 17 22 9 12 1018.8 1018.7 0.2
19/01:30am 10.7 7.4 9.6 93 0.6 S 17 22 9 12 1018.6 1018.5 0.2
19/01:00am 10.6 6.7 9.5 93 0.6 SSE 20 28 11 15 1018.0 1017.9 0.2
19/12:30am 10.9 7.2 10.1 95 0.4 SSE 20 28 11 15 1017.7 1017.6 0.2
19/12:00am 10.8 6.3 10.2 96 0.3 S 24 32 13 17 1017.5 1017.4 0.2
 
Date/Time
EST
Temp
°C
App
Temp
°C
Dew
Point
Rel
Hum
%
Delta-T
°C
Wind Press
QNH
hPa
Press
MSL
hPa
Rain
since 9 am
mm
Dir
 
Spd
km/h
Gust
km/h
Spd
kts
Gust
kts
18/11:30pm 11.2 5.6 10.3 94 0.5 SSE 30 43 16 23 1016.6 1016.5 0.0
18/11:00pm 11.7 5.8 10.3 91 0.7 S 32 44 17 24 1016.7 1016.6 0.0
18/10:47pm 13.1 8.9 11.2 88 1.0 SW 24 46 13 25 1016.5 1016.4 0.0
18/10:44pm 14.5 11.4 11.5 82 1.6 W 19 46 10 25 1016.4 1016.3 0.0
18/10:30pm 15.3 12.8 11.1 76 2.3 WNW 15 20 8 11 1016.1 1016.0 0.0
18/10:00pm 15.2 13.4 11.0 76 2.2 NW 11 17 6 9 1015.9 1015.8 0.0
18/09:30pm 14.5 13.2 11.1 80 1.8 NNW 9 13 5 7 1015.7 1015.6 0.0
18/09:00pm 14.2 12.9 11.2 82 1.6 NNW 9 13 5 7 1015.4 1015.3 0.0
18/08:30pm 13.2 11.8 10.9 86 1.2 N 9 11 5 6 1015.0 1014.9 0.0
18/08:00pm 12.6 11.3 10.1 85 1.3 N 7 9 4 5 1014.8 1014.7 0.0
18/07:30pm 13.0 11.5 10.5 85 1.3 N 9 11 5 6 1014.8 1014.7 0.0
18/07:00pm 13.7 13.4 10.1 79 1.9 NNW 2 7 1 4 1014.5 1014.4 0.0
18/06:30pm 14.5 13.2 9.9 74 2.4 NW 7 9 4 5 1014.0 1013.9 0.0
18/06:00pm 15.1 13.5 10.1 72 2.6 NNW 9 9 5 5 1014.0 1013.9 0.0
18/05:30pm 16.7 14.3 9.9 64 3.6 WNW 13 19 7 10 1013.4 1013.3 0.0
18/05:00pm 17.4 14.8 10.8 65 3.6 NW 15 20 8 11 1013.1 1013.0 0.0
18/04:30pm 17.2 15.5 11.2 68 3.3 NW 11 17 6 9 1012.8 1012.7 0.0
18/04:00pm 16.7 13.9 11.4 71 2.9 WNW 17 24 9 13 1013.1 1013.0 0.0
18/03:30pm 16.8 14.1 11.7 72 2.8 W 17 20 9 11 1013.1 1013.0 0.0
18/03:00pm 17.0 14.9 12.3 74 2.6 WNW 15 22 8 12 1013.0 1012.9 0.0
18/02:30pm 17.0 14.3 12.9 77 2.3 WNW 19 26 10 14 1012.7 1012.5 0.0
18/02:00pm 16.6 13.8 13.3 81 1.9 W 20 28 11 15 1012.9 1012.8 0.0
18/01:30pm 16.3 14.2 13.6 84 1.5 W 17 24 9 13 1013.2 1013.1 0.0
18/01:00pm 16.2 14.9 14.9 92 0.8 W 15 24 8 13 1013.4 1013.3 0.0
18/12:30pm 15.7 13.7 14.9 95 0.5 W 19 24 10 13 1013.9 1013.8 0.0
18/12:00pm 16.1 14.4 14.6 91 0.9 W 17 24 9 13 1014.2 1014.1 0.0
18/11:30am 16.3 15.0 14.8 91 0.9 WNW 15 22 8 12 1014.3 1014.2 0.0
18/11:00am 16.5 15.8 15.5 94 0.6 NW 13 19 7 10 1014.4 1014.3 0.0
18/10:30am 15.9 16.1 15.7 99 0.1 WNW 9 13 5 7 1014.8 1014.7 0.0
18/10:00am 15.8 15.9 15.6 99 0.1 W 9 11 5 6 1014.9 1014.8 0.0
18/09:30am 15.8 15.2 15.6 99 0.1 WNW 13 15 7 8 1015.0 1014.9 0.0
18/09:00am 15.8 15.6 15.6 99 0.1 WNW 11 13 6 7 1014.8 1014.7 27.2
18/08:30am 15.8 16.0 15.8 100 0.0 NW 9 13 5 7 1014.7 1014.6 27.2
18/08:00am 15.7 16.4 15.7 100 0.0 WNW 6 9 3 5 1014.4 1014.3 27.2
18/07:30am 15.5 16.1 15.3 99 0.1 N 6 7 3 4 1013.8 1013.7 27.2
18/07:00am 15.5 17.2 15.3 99 0.1 CALM 0 6 0 3 1013.6 1013.5 26.6
18/06:30am 15.5 15.6 15.5 100 0.0 W 9 13 5 7 1013.6 1013.5 26.6
18/06:00am 15.6 15.7 15.6 100 0.0 W 9 13 5 7 1013.4 1013.3 26.6
18/05:30am 15.6 16.1 15.6 100 0.0 NNW 7 9 4 5 1013.4 1013.3 26.2
18/05:00am 15.7 16.2 15.5 99 0.1 NNW 7 9 4 5 1013.2 1013.1 23.0
18/04:30am 15.6 16.2 15.4 99 0.1 NW 6 7 3 4 1013.0 1012.9 19.2
18/04:00am 15.6 16.6 15.4 99 0.1 WNW 4 7 2 4 1012.9 1012.8 17.0
18/03:30am 15.6 16.0 15.4 99 0.1 W 7 9 4 5 1012.9 1012.8 16.0
18/03:00am 15.8 16.3 15.6 99 0.1 WNW 7 11 4 6 1013.1 1013.0 11.0
18/02:30am 15.9 15.3 15.7 99 0.1 W 13 19 7 10 1013.7 1013.6 10.4
18/02:00am 17.5 16.2 17.3 99 0.1 N 20 30 11 16 1013.3 1013.2 8.4
18/01:30am 17.5 15.8 17.3 99 0.1 N 22 32 12 17 1013.5 1013.4 8.2
18/01:00am 17.6 15.6 17.3 98 0.2 N 24 35 13 19 1013.6 1013.5 7.8
18/12:30am 17.5 15.5 17.3 99 0.1 N 24 32 13 17 1013.8 1013.7 7.8
18/12:00am 17.3 15.9 17.1 99 0.1 NNE 20 30 11 16 1013.9 1013.8 7.8
 
Date/Time
EST
Temp
°C
App
Temp
°C
Dew
Point
Rel
Hum
%
Delta-T
°C
Wind Press
QNH
hPa
Press
MSL
hPa
Rain
since 9 am
mm
Dir
 
Spd
km/h
Gust
km/h
Spd
kts
Gust
kts
17/11:30pm 16.9 17.1 16.7 99 0.1 NNE 11 17 6 9 1014.5 1014.4 7.6
17/11:00pm 16.4 17.1 16.2 99 0.1 NNE 7 11 4 6 1015.4 1015.3 7.0
17/10:30pm 15.9 16.1 15.7 99 0.1 ENE 9 13 5 7 1015.5 1015.4 7.0
17/10:00pm 15.4 15.4 15.2 99 0.1 E 9 9 5 5 1015.8 1015.7 7.0
17/09:30pm 15.1 16.7 14.9 99 0.1 CALM 0 0 0 0 1016.8 1016.7 6.8
17/09:00pm 15.2 16.8 15.0 99 0.1 CALM 0 6 0 3 1016.7 1016.6 5.8
17/08:30pm 14.8 15.9 14.6 99 0.1 SSE 2 6 1 3 1016.7 1016.6 5.6
17/08:00pm 15.0 16.6 14.8 99 0.1 CALM 0 0 0 0 1016.9 1016.8 5.4
17/07:30pm 14.7 15.8 14.5 99 0.1 ENE 2 7 1 4 1017.1 1017.0 5.4
17/07:00pm 14.5 15.8 14.2 98 0.2 CALM 0 0 0 0 1017.0 1016.9 5.2
17/06:30pm 14.3 15.6 14.0 98 0.2 CALM 0 0 0 0 1017.0 1016.9 5.0
17/06:00pm 14.1 13.5 13.6 97 0.3 ENE 9 13 5 7 1016.5 1016.4 4.4
17/05:30pm 13.9 13.2 13.3 96 0.3 ENE 9 15 5 8 1016.5 1016.4 4.4
17/05:00pm 13.9 12.8 13.1 95 0.4 ENE 11 17 6 9 1016.8 1016.7 4.4
17/04:30pm 13.8 12.6 12.9 94 0.5 E 11 17 6 9 1017.1 1017.0 4.4
17/04:00pm 13.9 12.3 12.8 93 0.6 E 13 17 7 9 1017.5 1017.4 4.2
17/03:30pm 14.0 12.1 13.1 94 0.5 E 15 20 8 11 1017.5 1017.4 4.2
17/03:00pm 14.1 13.4 13.3 95 0.4 E 9 13 5 7 1018.6 1018.5 4.0
17/02:30pm 13.8 14.3 12.9 94 0.5 NNE 2 9 1 5 1019.4 1019.2 3.0
17/02:00pm 14.0 13.7 12.6 91 0.8 NNW 6 7 3 4 1019.8 1019.6 2.2
17/01:30pm 14.0 13.4 12.2 89 1.0 N 7 11 4 6 1019.9 1019.7 1.2
17/01:00pm 14.5 13.4 12.0 85 1.4 NNE 9 15 5 8 1020.1 1019.9 0.2
17/12:30pm 15.0 13.4 11.4 79 1.9 NNE 11 17 6 9 1020.7 1020.6 0.0
17/12:00pm 14.8 12.3 11.2 79 1.9 NNE 15 19 8 10 1021.6 1021.5 0.0
17/11:30am 15.0 13.7 10.0 72 2.6 NNE 7 11 4 6 1021.8 1021.7 0.0
17/11:00am 14.7 13.4 10.1 74 2.4 NE 7 11 4 6 1022.1 1022.0 0.0
17/10:30am 14.2 12.2 10.2 77 2.1 NNE 11 15 6 8 1022.9 1022.8 0.0
17/10:00am 13.7 12.9 9.6 76 2.1 ENE 4 7 2 4 1023.3 1023.2 0.0
17/09:30am 13.6 12.6 8.7 72 2.5 SE 4 7 2 4 1023.5 1023.4 0.0
17/09:00am 13.3 11.3 8.6 73 2.4 SSE 9 9 5 5 1023.3 1023.2 0.0
17/08:30am 12.9 10.1 8.4 74 2.2 SSE 13 15 7 8 1023.0 1022.9 0.0
17/08:00am 12.6 10.9 8.5 76 2.0 SSE 7 11 4 6 1023.0 1022.9 0.0
17/07:30am 12.3 10.3 8.8 79 1.8 SSE 9 11 5 6 1022.7 1022.6 0.0
17/07:00am 12.1 10.5 8.6 79 1.7 WNW 7 9 4 5 1022.6 1022.5 0.0
17/06:30am 12.1 11.8 8.6 79 1.7 CALM 0 0 0 0 1022.6 1022.5 0.0
17/06:00am 12.3 11.9 8.4 77 1.9 CALM 0 0 0 0 1022.4 1022.3 0.0
17/05:30am 12.3 10.8 8.4 77 1.9 WNW 6 7 3 4 1022.5 1022.4 0.0
17/05:00am 12.5 11.4 8.6 77 1.9 SW 4 7 2 4 1022.4 1022.3 0.0
17/04:30am 12.6 10.6 8.5 76 2.0 SW 9 11 5 6 1022.0 1021.9 0.0
17/04:00am 12.5 10.4 8.4 76 2.0 WSW 9 13 5 7 1021.6 1021.5 0.0
17/03:30am 12.8 10.8 8.7 76 2.1 WSW 9 11 5 6 1021.4 1021.3 0.0
17/03:00am 13.0 11.3 8.5 74 2.2 WSW 7 9 4 5 1021.7 1021.6 0.0
17/02:30am 13.4 11.7 8.3 71 2.6 SW 7 11 4 6 1022.3 1022.2 0.0
17/02:00am 13.6 11.1 8.4 71 2.6 SSW 11 13 6 7 1022.6 1022.5 0.0
17/01:30am 13.9 11.1 8.5 70 2.7 SSE 13 17 7 9 1022.8 1022.7 0.0
17/01:00am 13.9 11.2 8.9 72 2.5 SSE 13 17 7 9 1023.2 1023.1 0.0
17/12:30am 14.0 11.6 8.8 71 2.6 SSE 11 13 6 7 1023.5 1023.4 0.0
17/12:00am 14.1 12.2 8.9 71 2.6 SSE 9 15 5 8 1023.8 1023.7 0.0
 
Date/Time
EST
Temp
°C
App
Temp
°C
Dew
Point
Rel
Hum
%
Delta-T
°C
Wind Press
QNH
hPa
Press
MSL
hPa
Rain
since 9 am
mm
Dir
 
Spd
km/h
Gust
km/h
Spd
kts
Gust
kts
16/11:30pm 14.3 12.0 9.1 71 2.7 SSE 11 13 6 7 1024.0 1023.9 0.0
16/11:00pm 14.7 13.2 9.3 70 2.8 SSE 7 11 4 6 1024.1 1024.0 0.0
16/10:30pm 14.5 12.4 9.7 73 2.5 SSE 11 15 6 8 1024.1 1024.0 0.0
16/10:00pm 15.4 14.0 8.9 65 3.3 SW 6 13 3 7 1024.5 1024.4 0.0
16/09:30pm 15.8 12.3 8.8 63 3.6 S 17 26 9 14 1024.6 1024.5 0.0
16/09:00pm 16.0 12.5 8.7 62 3.7 S 17 22 9 12 1024.5 1024.4 0.0
16/08:30pm 16.1 13.4 8.8 62 3.8 SSW 13 19 7 10 1024.0 1023.9 0.0
16/08:00pm 16.3 12.8 8.8 61 3.8 SSE 17 24 9 13 1023.6 1023.5 0.0
16/07:30pm 16.6 12.6 9.1 61 3.9 SSE 20 30 11 16 1023.4 1023.3 0.0
16/07:00pm 17.0 12.6 8.9 59 4.2 SSE 22 35 12 19 1023.7 1023.6 0.0
16/06:30pm 17.5 14.5 9.4 59 4.3 SSE 15 22 8 12 1023.5 1023.4 0.0
16/06:00pm 17.9 13.6 9.5 58 4.4 SSE 22 30 12 16 1022.9 1022.8 0.0
16/05:30pm 18.5 15.2 9.6 56 4.7 SSW 17 24 9 13 1022.8 1022.7 0.0
16/05:00pm 19.3 15.5 9.8 54 5.1 SSE 20 28 11 15 1022.1 1022.0 0.0
16/04:30pm 19.9 16.7 9.8 52 5.4 SSW 17 22 9 12 1022.2 1022.1 0.0
16/04:00pm 20.5 16.4 8.5 46 6.3 SSE 20 26 11 14 1022.0 1021.9 0.0
16/03:30pm 20.7 16.7 9.0 47 6.2 S 20 28 11 15 1022.3 1022.2 0.0
16/03:00pm 21.2 17.6 8.5 44 6.7 SSW 17 28 9 15 1022.2 1022.1 0.0
16/02:30pm 21.5 17.6 9.4 46 6.5 S 20 26 11 14 1022.2 1022.1 0.0
16/02:00pm 21.6 17.3 9.2 45 6.6 S 22 32 12 17 1022.0 1021.9 0.0
16/01:30pm 21.9 18.5 9.1 44 6.9 SSE 17 24 9 13 1022.2 1022.1 0.0
16/01:00pm 21.8 18.2 9.7 46 6.5 SSE 19 32 10 17 1022.6 1022.5 0.0
16/12:30pm 22.0 18.7 10.8 49 6.2 S 19 26 10 14 1023.2 1023.1 0.0
16/12:00pm 21.7 18.3 11.4 52 5.7 S 20 30 11 16 1023.4 1023.3 0.0
16/11:30am 21.6 18.2 11.3 52 5.7 S 20 28 11 15 1023.5 1023.4 0.0
16/11:00am 20.2 17.4 11.4 57 4.9 S 17 26 9 14 1023.8 1023.7 0.0
16/10:30am 19.6 17.0 11.9 61 4.3 S 17 28 9 15 1023.7 1023.6 0.0
16/10:00am 18.9 16.4 12.4 66 3.6 SSW 17 22 9 12 1024.1 1024.0 0.0
16/09:30am 18.3 16.1 12.1 67 3.4 S 15 20 8 11 1024.0 1023.9 0.0
16/09:00am 17.7 15.9 13.2 75 2.5 SSW 15 20 8 11 1023.9 1023.8 0.2
16/08:30am 17.0 15.7 13.7 81 1.9 SSW 13 17 7 9 1023.3 1023.2 0.2
16/08:00am 15.8 14.4 13.5 86 1.3 S 13 15 7 8 1022.8 1022.7 0.2
16/07:30am 14.3 13.7 13.5 95 0.4 SSW 9 13 5 7 1022.7 1022.6 0.2
16/07:00am 13.3 12.4 12.7 96 0.3 S 9 11 5 6 1022.5 1022.4 0.2

Other Formats:

Comma delimited format used in spreadsheet applications
http://www.bom.gov.au/fwo/IDV60801/IDV60801.94875.axf

JavaScript Object Notation format (JSON) in row-major order
http://www.bom.gov.au/fwo/IDV60801/IDV60801.94875.json